createdAt,value
2018-09-22T00:01:52.243Z,100850.69
2018-09-22T00:04:19.422Z,100848.34
2018-09-22T00:06:46.675Z,100856.28
2018-09-22T00:09:13.833Z,100857.94
2018-09-22T00:11:41.040Z,100853.13
2018-09-22T00:14:08.635Z,100855.64
2018-09-22T00:16:35.939Z,100852.70
2018-09-22T00:19:03.157Z,100858.41
2018-09-22T00:21:30.380Z,100864.56
2018-09-22T00:23:57.559Z,100867.84
2018-09-22T00:26:24.744Z,100868.88
2018-09-22T00:28:51.957Z,100878.12
2018-09-22T00:31:19.189Z,100875.66
2018-09-22T00:33:46.347Z,100882.40
2018-09-22T00:36:13.591Z,100885.25
2018-09-22T00:38:40.816Z,100888.52
2018-09-22T00:41:08.014Z,100894.90
2018-09-22T00:43:35.302Z,100893.55
2018-09-22T00:46:02.487Z,100885.69
2018-09-22T00:48:29.740Z,100885.20
2018-09-22T00:50:56.992Z,100882.03
2018-09-22T00:53:24.160Z,100883.16
2018-09-22T00:55:51.336Z,100882.00
2018-09-22T00:58:18.633Z,100886.79
2018-09-22T01:00:45.790Z,100884.16
2018-09-22T01:03:12.937Z,100887.11
2018-09-22T01:05:40.152Z,100890.64
2018-09-22T01:08:07.308Z,100894.30
2018-09-22T01:10:34.567Z,100896.27
2018-09-22T01:13:02.802Z,100898.69
2018-09-22T01:15:29.997Z,100901.80
2018-09-22T01:17:57.304Z,100904.59
2018-09-22T01:20:24.544Z,100899.84
2018-09-22T01:22:51.782Z,100903.98
2018-09-22T01:25:18.989Z,100912.31
2018-09-22T01:27:46.208Z,100910.38
2018-09-22T01:30:13.376Z,100909.89
2018-09-22T01:32:40.552Z,100904.56
2018-09-22T01:35:07.811Z,100911.45
2018-09-22T01:37:40.792Z,100908.26
2018-09-22T01:40:08.023Z,100912.22
2018-09-22T01:42:35.208Z,100904.83
2018-09-22T01:45:02.415Z,100906.20
2018-09-22T01:47:29.652Z,100901.36
2018-09-22T01:49:56.812Z,100910.25
2018-09-22T01:52:23.981Z,100914.27
2018-09-22T01:54:51.232Z,100910.31
2018-09-22T01:57:18.412Z,100909.80
2018-09-22T01:59:45.624Z,100907.31
2018-09-22T02:02:12.841Z,100922.61
2018-09-22T02:04:50.398Z,100917.55
2018-09-22T02:07:17.813Z,100923.90
2018-09-22T02:09:44.987Z,100929.46
2018-09-22T02:12:12.162Z,100937.12
2018-09-22T02:14:39.367Z,100943.53
2018-09-22T02:17:10.856Z,100943.59
2018-09-22T02:19:38.025Z,100946.06
2018-09-22T02:22:05.264Z,100948.97
2018-09-22T02:24:32.566Z,100946.93
2018-09-22T02:26:59.741Z,100950.52
2018-09-22T02:29:27.551Z,100948.86
2018-09-22T02:31:54.718Z,100943.93
2018-09-22T02:34:27.636Z,100946.73
2018-09-22T02:36:54.906Z,100946.28
2018-09-22T02:39:22.062Z,100949.50
2018-09-22T02:41:49.279Z,100950.53
2018-09-22T02:44:16.469Z,100954.91
2018-09-22T02:46:43.652Z,100951.15
2018-09-22T02:49:10.954Z,100957.09
2018-09-22T02:51:38.113Z,100961.56
2018-09-22T02:54:05.282Z,100965.63
2018-09-22T02:56:32.518Z,100962.63
2018-09-22T02:58:59.743Z,100963.89
2018-09-22T03:01:27.028Z,100965.20
2018-09-22T03:03:54.225Z,100966.98
2018-09-22T03:06:21.375Z,100966.25
2018-09-22T03:08:48.569Z,100963.20
2018-09-22T03:11:15.789Z,100968.86
2018-09-22T03:13:43.033Z,100969.35
2018-09-22T03:16:10.195Z,100971.69
2018-09-22T03:18:37.423Z,100960.75
2018-09-22T03:21:04.605Z,100965.61
2018-09-22T03:23:31.782Z,100972.29
2018-09-22T03:25:59.067Z,100976.11
2018-09-22T03:28:26.232Z,100970.72
2018-09-22T03:30:53.406Z,100977.72
2018-09-22T03:33:20.619Z,100981.19
2018-09-22T03:35:47.788Z,100978.78
2018-09-22T03:38:14.953Z,100980.55
2018-09-22T03:40:42.169Z,100986.37
2018-09-22T03:43:09.362Z,100983.33
2018-09-22T03:45:36.496Z,100989.44
2018-09-22T03:48:03.750Z,100988.52
2018-09-22T03:50:30.937Z,100988.98
2018-09-22T03:52:58.141Z,100985.81
2018-09-22T03:55:25.384Z,100982.73
2018-09-22T03:57:52.553Z,100983.75
2018-09-22T04:00:19.726Z,100977.79
2018-09-22T04:02:46.942Z,100980.38
2018-09-22T04:05:14.385Z,100981.37
2018-09-22T04:07:41.546Z,100984.62
2018-09-22T04:10:08.782Z,100982.42
2018-09-22T04:12:37.014Z,100990.78
2018-09-22T04:15:04.413Z,100987.70
2018-09-22T04:17:31.616Z,100982.72
2018-09-22T04:19:58.765Z,100990.75
2018-09-22T04:22:25.965Z,100995.15
2018-09-22T04:24:53.176Z,101000.39
2018-09-22T04:27:21.429Z,101005.27
2018-09-22T04:29:48.590Z,101011.34
2018-09-22T04:32:15.808Z,101018.69
2018-09-22T04:34:42.961Z,101011.89
2018-09-22T04:37:10.160Z,101013.55
2018-09-22T04:39:37.385Z,101025.81
2018-09-22T04:42:04.580Z,101016.44
2018-09-22T04:44:31.754Z,101030.50
2018-09-22T04:46:58.974Z,101027.37
2018-09-22T04:49:26.154Z,101034.38
2018-09-22T04:51:54.373Z,101032.59
2018-09-22T04:54:21.606Z,101037.31
2018-09-22T04:56:48.856Z,101048.48
2018-09-22T04:59:16.048Z,101052.95
2018-09-22T05:01:43.242Z,101046.97
2018-09-22T05:04:10.554Z,101050.51
2018-09-22T05:06:37.701Z,101051.05
2018-09-22T05:09:07.570Z,101066.11
2018-09-22T05:11:34.746Z,101072.28
2018-09-22T05:14:02.094Z,101069.62
2018-09-22T05:16:29.349Z,101085.81
2018-09-22T05:18:56.614Z,101083.69
2018-09-22T05:21:23.764Z,101089.64
2018-09-22T05:23:50.980Z,101082.69
2018-09-22T05:26:18.133Z,101083.94
2018-09-22T05:28:45.368Z,101095.39
2018-09-22T05:31:12.596Z,101098.16
2018-09-22T05:33:39.756Z,101095.59
2018-09-22T05:36:06.951Z,101106.06
2018-09-22T05:38:34.168Z,101106.00
2018-09-22T05:41:01.429Z,101107.80
2018-09-22T05:43:28.617Z,101112.91
2018-09-22T05:45:55.895Z,101117.73
2018-09-22T05:48:23.083Z,101116.02
2018-09-22T05:50:50.259Z,101123.42
2018-09-22T05:53:17.460Z,101124.19
2018-09-22T05:55:44.640Z,101130.38
2018-09-22T05:58:11.847Z,101137.09
2018-09-22T06:00:39.769Z,101144.12
2018-09-22T06:03:08.197Z,101147.63
2018-09-22T06:05:35.488Z,101148.50
2018-09-22T06:08:02.824Z,101152.82
2018-09-22T06:10:30.061Z,101154.64
2018-09-22T06:12:57.245Z,101162.11
2018-09-22T06:15:25.597Z,101168.73
2018-09-22T06:17:52.977Z,101168.48
2018-09-22T06:20:20.732Z,101173.73
2018-09-22T06:22:48.062Z,101179.22
2018-09-22T06:25:15.230Z,101183.86
2018-09-22T06:27:42.468Z,101178.80
2018-09-22T06:30:09.761Z,101187.19
2018-09-22T06:32:37.010Z,101190.96
2018-09-22T06:35:04.237Z,101196.95
2018-09-22T06:37:32.289Z,101197.48
2018-09-22T06:40:00.112Z,101201.16
2018-09-22T06:42:27.742Z,101202.74
2018-09-22T06:44:55.500Z,101200.88
2018-09-22T06:47:23.757Z,101208.28
2018-09-22T06:49:51.729Z,101200.94
2018-09-22T06:52:18.965Z,101209.55
2018-09-22T06:54:46.486Z,101213.11
2018-09-22T06:57:13.941Z,101215.16
2018-09-22T06:59:41.164Z,101222.87
2018-09-22T07:02:08.758Z,101230.34
2018-09-22T07:04:39.124Z,101226.22
2018-09-22T07:07:07.615Z,101226.19
2018-09-22T07:09:34.793Z,101232.41
2018-09-22T07:12:03.690Z,101229.03
2018-09-22T07:14:30.979Z,101233.44
2018-09-22T07:16:58.390Z,101226.72
2018-09-22T07:19:26.332Z,101236.73
2018-09-22T07:21:59.353Z,101237.48
2018-09-22T07:24:26.547Z,101244.00
2018-09-22T07:26:53.741Z,101243.55
2018-09-22T07:29:20.948Z,101241.04
2018-09-22T07:31:48.297Z,101256.02
2018-09-22T07:34:16.473Z,101255.67
2018-09-22T07:36:43.821Z,101246.16
2018-09-22T07:39:11.729Z,101251.64
2018-09-22T07:41:39.005Z,101253.18
2018-09-22T07:44:06.324Z,101260.88
2018-09-22T07:46:33.540Z,101259.98
2018-09-22T07:49:01.577Z,101268.00
2018-09-22T07:51:28.794Z,101267.75
2018-09-22T07:53:56.012Z,101268.85
2018-09-22T07:56:23.265Z,101271.33
2018-09-22T07:58:50.575Z,101275.47
2018-09-22T08:01:17.778Z,101276.41
2018-09-22T08:03:44.900Z,101282.88
2018-09-22T08:06:13.212Z,101280.50
2018-09-22T08:08:40.460Z,101286.31
2018-09-22T08:11:10.406Z,101291.66
2018-09-22T08:13:37.646Z,101294.48
2018-09-22T08:16:06.150Z,101298.66
2018-09-22T08:18:33.333Z,101301.44
2018-09-22T08:21:00.528Z,101298.33
2018-09-22T08:23:28.803Z,101301.27
2018-09-22T08:25:56.169Z,101303.06
2018-09-22T08:28:23.484Z,101295.88
2018-09-22T08:30:51.737Z,101294.64
2018-09-22T08:33:18.923Z,101301.52
2018-09-22T08:35:46.403Z,101299.79
2018-09-22T08:38:13.605Z,101296.84
2018-09-22T08:40:40.777Z,101295.50
2018-09-22T08:43:07.994Z,101293.78
2018-09-22T08:45:35.127Z,101298.11
2018-09-22T08:48:02.308Z,101305.64
2018-09-22T08:50:29.535Z,101310.87
2018-09-22T08:52:56.698Z,101314.63
2018-09-22T08:55:24.387Z,101313.70
2018-09-22T08:57:51.705Z,101309.72
2018-09-22T09:00:19.130Z,101310.70
2018-09-22T09:02:46.541Z,101309.79
2018-09-22T09:05:13.840Z,101309.19
2018-09-22T09:07:41.042Z,101315.50
2018-09-22T09:10:08.212Z,101303.73
2018-09-22T09:12:35.468Z,101311.16
2018-09-22T09:15:03.035Z,101312.69
2018-09-22T09:17:31.577Z,101308.14
2018-09-22T09:19:58.890Z,101301.58
2018-09-22T09:22:34.426Z,101303.77
2018-09-22T09:25:01.601Z,101293.73
2018-09-22T09:27:29.046Z,101299.69
2018-09-22T09:29:56.162Z,101300.03
2018-09-22T09:32:23.727Z,101306.70
2018-09-22T09:34:51.043Z,101305.91
2018-09-22T09:37:18.430Z,101312.63
2018-09-22T09:39:45.639Z,101313.70
2018-09-22T09:42:12.841Z,101325.72
2018-09-22T09:44:40.057Z,101316.45
2018-09-22T09:47:07.278Z,101319.15
2018-09-22T09:49:34.434Z,101314.84
2018-09-22T09:52:01.991Z,101299.86
2018-09-22T09:54:33.151Z,101310.45
2018-09-22T09:57:00.358Z,101300.61
2018-09-22T09:59:27.617Z,101306.55
2018-09-22T10:01:54.809Z,101312.23
2018-09-22T10:04:21.980Z,101304.72
2018-09-22T10:06:50.178Z,101306.21
2018-09-22T10:09:17.404Z,101304.17
2018-09-22T10:11:44.639Z,101296.61
2018-09-22T10:14:11.877Z,101298.10
2018-09-22T10:16:39.089Z,101297.13
2018-09-22T10:19:06.252Z,101294.20
2018-09-22T10:21:33.405Z,101308.67
2018-09-22T10:24:00.600Z,101298.23
2018-09-22T10:26:27.778Z,101291.07
2018-09-22T10:28:54.964Z,101303.25
2018-09-22T10:31:22.158Z,101314.28
2018-09-22T10:33:49.309Z,101301.44
2018-09-22T10:36:17.013Z,101306.47
2018-09-22T10:38:44.245Z,101302.19
2018-09-22T10:41:11.450Z,101310.88
2018-09-22T10:43:38.643Z,101301.31
2018-09-22T10:46:05.868Z,101311.47
2018-09-22T10:48:33.099Z,101300.14
2018-09-22T10:51:01.107Z,101302.22
2018-09-22T10:53:28.354Z,101303.82
2018-09-22T10:55:55.493Z,101296.23
2018-09-22T10:58:22.669Z,101298.42
2018-09-22T11:00:49.940Z,101306.83
2018-09-22T11:03:17.133Z,101310.20
2018-09-22T11:05:44.238Z,101312.59
2018-09-22T11:08:11.453Z,101312.61
2018-09-22T11:10:38.569Z,101315.17
2018-09-22T11:13:05.781Z,101308.61
2018-09-22T11:15:32.979Z,101303.77
2018-09-22T11:18:00.589Z,101303.33
2018-09-22T11:20:27.721Z,101297.67
2018-09-22T11:22:54.917Z,101299.70
2018-09-22T11:25:22.137Z,101292.27
2018-09-22T11:27:49.688Z,101284.04
2018-09-22T11:30:16.877Z,101278.23
2018-09-22T11:32:44.062Z,101265.38
2018-09-22T11:35:14.518Z,101255.13
2018-09-22T11:37:41.815Z,101261.26
2018-09-22T11:40:08.980Z,101250.34
2018-09-22T11:42:36.097Z,101254.20
2018-09-22T11:45:03.334Z,101266.54
2018-09-22T11:47:30.477Z,101261.21
2018-09-22T11:49:57.722Z,101266.34
2018-09-22T11:52:24.929Z,101259.89
2018-09-22T11:54:52.100Z,101265.31
2018-09-22T11:57:19.250Z,101270.96
2018-09-22T11:59:46.432Z,101261.89
2018-09-22T12:02:13.603Z,101269.70
2018-09-22T12:04:41.840Z,101259.83
2018-09-22T12:07:09.100Z,101255.42
2018-09-22T12:09:36.269Z,101257.13
2018-09-22T12:12:06.848Z,101252.89
2018-09-22T12:14:34.185Z,101252.75
2018-09-22T12:17:01.369Z,101251.09
2018-09-22T12:19:28.511Z,101247.20
2018-09-22T12:21:55.706Z,101245.47
2018-09-22T12:24:22.849Z,101242.58
2018-09-22T12:26:50.062Z,101240.52
2018-09-22T12:29:17.277Z,101244.17
2018-09-22T12:31:44.420Z,101243.80
2018-09-22T12:34:11.590Z,101249.09
2018-09-22T12:36:38.813Z,101252.41
2018-09-22T12:39:08.186Z,101251.00
2018-09-22T12:41:35.728Z,101243.80
2018-09-22T12:44:03.050Z,101242.95
2018-09-22T12:46:30.197Z,101242.48
2018-09-22T12:48:57.352Z,101230.80
2018-09-22T12:51:24.552Z,101251.48
2018-09-22T12:53:51.702Z,101240.67
2018-09-22T12:56:18.878Z,101227.53
2018-09-22T12:58:46.080Z,101227.44
2018-09-22T13:01:13.326Z,101233.59
2018-09-22T13:03:40.489Z,101235.05
2018-09-22T13:06:07.714Z,101240.98
2018-09-22T13:08:34.857Z,101231.85
2018-09-22T13:11:02.023Z,101228.02
2018-09-22T13:13:29.296Z,101227.27
2018-09-22T13:15:56.698Z,101233.28
2018-09-22T13:18:23.870Z,101237.92
2018-09-22T13:20:51.133Z,101238.62
2018-09-22T13:23:18.301Z,101246.27
2018-09-22T13:25:45.456Z,101242.80
2018-09-22T13:28:12.690Z,101249.94
2018-09-22T13:30:39.840Z,101241.61
2018-09-22T13:33:07.037Z,101227.02
2018-09-22T13:35:34.228Z,101237.05
2018-09-22T13:38:01.549Z,101230.65
2018-09-22T13:40:28.705Z,101226.64
2018-09-22T13:42:55.896Z,101227.55
2018-09-22T13:45:23.112Z,101226.55
2018-09-22T13:47:50.332Z,101219.62
2018-09-22T13:50:17.529Z,101220.16
2018-09-22T13:52:44.673Z,101221.14
2018-09-22T13:55:11.813Z,101223.36
2018-09-22T13:57:39.020Z,101219.44
2018-09-22T14:00:06.179Z,101221.97
2018-09-22T14:02:33.317Z,101215.76
2018-09-22T14:05:00.525Z,101224.75
2018-09-22T14:07:27.672Z,101211.62
2018-09-22T14:09:54.809Z,101211.28
2018-09-22T14:12:22.030Z,101219.36
2018-09-22T14:14:49.160Z,101215.83
2018-09-22T14:17:16.366Z,101210.31
2018-09-22T14:19:43.564Z,101219.87
2018-09-22T14:22:10.731Z,101220.53
2018-09-22T14:24:37.867Z,101206.42
2018-09-22T14:27:05.129Z,101200.83
2018-09-22T14:29:32.285Z,101206.85
2018-09-22T14:31:59.424Z,101200.47
2018-09-22T14:34:26.609Z,101207.48
2018-09-22T14:36:53.752Z,101197.62
2018-09-22T14:39:20.901Z,101206.75
2018-09-22T14:41:48.085Z,101208.05
2018-09-22T14:44:15.353Z,101206.82
2018-09-22T14:46:42.498Z,101216.78
2018-09-22T14:49:09.730Z,101212.48
2018-09-22T14:51:36.869Z,101216.97
2018-09-22T14:54:04.028Z,101205.92
2018-09-22T14:56:31.305Z,101213.45
2018-09-22T14:58:58.469Z,101210.02
2018-09-22T15:01:25.634Z,101210.48
2018-09-22T15:03:52.809Z,101206.09
2018-09-22T15:06:19.970Z,101202.05
2018-09-22T15:08:47.145Z,101198.12
2018-09-22T15:11:14.341Z,101197.95
2018-09-22T15:13:41.477Z,101196.91
2018-09-22T15:16:08.680Z,101197.61
2018-09-22T15:18:36.009Z,101205.30
2018-09-22T15:21:03.145Z,101201.90
2018-09-22T15:23:30.361Z,101195.47
2018-09-22T15:25:57.553Z,101197.73
2018-09-22T15:28:24.772Z,101204.91
2018-09-22T15:30:51.973Z,101208.28
2018-09-22T15:33:19.190Z,101202.38
2018-09-22T15:35:46.406Z,101196.73
2018-09-22T15:38:13.604Z,101189.46
2018-09-22T15:40:40.856Z,101189.80
2018-09-22T15:43:08.202Z,101188.48
2018-09-22T15:45:39.602Z,101188.23
2018-09-22T15:48:06.708Z,101190.21
2018-09-22T15:50:33.906Z,101188.48
2018-09-22T15:53:01.148Z,101197.84
2018-09-22T15:55:28.337Z,101193.33
2018-09-22T15:57:55.500Z,101188.11
2018-09-22T16:00:22.680Z,101186.95
2018-09-22T16:02:49.891Z,101183.70
2018-09-22T16:05:17.065Z,101179.99
2018-09-22T16:07:44.224Z,101182.89
2018-09-22T16:10:11.465Z,101179.30
2018-09-22T16:12:38.597Z,101184.80
2018-09-22T16:15:05.805Z,101176.02
2018-09-22T16:17:33.009Z,101182.14
2018-09-22T16:20:00.245Z,101182.25
2018-09-22T16:22:27.369Z,101180.29
2018-09-22T16:24:54.650Z,101176.16
2018-09-22T16:27:21.846Z,101187.05
2018-09-22T16:29:48.981Z,101176.91
2018-09-22T16:32:17.184Z,101177.13
2018-09-22T16:34:44.357Z,101172.58
2018-09-22T16:37:11.549Z,101171.26
2018-09-22T16:39:38.741Z,101181.97
2018-09-22T16:42:05.997Z,101185.55
2018-09-22T16:44:33.216Z,101169.47
2018-09-22T16:47:00.413Z,101180.43
2018-09-22T16:49:27.706Z,101177.72
2018-09-22T16:51:54.822Z,101176.22
2018-09-22T16:54:22.023Z,101174.19
2018-09-22T16:56:49.239Z,101170.95
2018-09-22T16:59:16.397Z,101180.16
2018-09-22T17:01:43.575Z,101175.23
2018-09-22T17:04:10.757Z,101161.47
2018-09-22T17:06:37.876Z,101157.15
2018-09-22T17:09:06.641Z,101158.63
2018-09-22T17:11:33.765Z,101167.82
2018-09-22T17:14:00.900Z,101169.47
2018-09-22T17:16:28.134Z,101173.72
2018-09-22T17:18:55.310Z,101178.61
2018-09-22T17:21:22.851Z,101170.47
2018-09-22T17:23:50.044Z,101156.84
2018-09-22T17:26:17.182Z,101162.37
2018-09-22T17:28:44.335Z,101165.28
2018-09-22T17:31:11.577Z,101157.97
2018-09-22T17:33:38.721Z,101164.63
2018-09-22T17:36:06.258Z,101161.44
2018-09-22T17:38:33.441Z,101148.88
2018-09-22T17:41:00.624Z,101147.02
2018-09-22T17:43:27.745Z,101139.61
2018-09-22T17:45:55.086Z,101138.41
2018-09-22T17:48:23.205Z,101153.04
2018-09-22T17:50:50.371Z,101168.76
2018-09-22T17:53:17.754Z,101183.63
2018-09-22T17:55:45.047Z,101189.83
2018-09-22T17:58:24.898Z,101177.46
2018-09-22T18:00:52.131Z,101170.19
2018-09-22T18:03:19.300Z,101165.48
2018-09-22T18:05:47.041Z,101159.07
2018-09-22T18:08:14.224Z,101166.31
2018-09-22T18:10:41.440Z,101161.57
2018-09-22T18:13:08.693Z,101158.09
2018-09-22T18:15:35.853Z,101148.54
2018-09-22T18:18:03.097Z,101151.89
2018-09-22T18:20:30.372Z,101155.45
2018-09-22T18:22:57.601Z,101151.19
2018-09-22T18:25:24.896Z,101152.92
2018-09-22T18:27:52.080Z,101156.07
2018-09-22T18:30:19.276Z,101160.41
2018-09-22T18:32:46.460Z,101157.89
2018-09-22T18:35:13.682Z,101153.96
2018-09-22T18:37:40.825Z,101151.68
2018-09-22T18:40:08.002Z,101149.53
2018-09-22T18:42:35.246Z,101148.38
2018-09-22T18:45:03.147Z,101145.85
2018-09-22T18:47:30.649Z,101143.78
2018-09-22T18:49:57.878Z,101147.41
2018-09-22T18:52:25.170Z,101154.52
2018-09-22T18:54:52.408Z,101154.15
2018-09-22T18:57:19.804Z,101140.21
2018-09-22T18:59:46.965Z,101135.45
2018-09-22T19:02:14.134Z,101131.03
2018-09-22T19:04:41.353Z,101127.94
2018-09-22T19:07:08.514Z,101131.91
2018-09-22T19:09:35.664Z,101132.06
2018-09-22T19:12:03.025Z,101135.95
2018-09-22T19:14:33.557Z,101140.38
2018-09-22T19:17:06.052Z,101140.30
2018-09-22T19:19:36.944Z,101144.63
2018-09-22T19:22:10.105Z,101139.80
2018-09-22T19:24:41.815Z,101143.08
2018-09-22T19:27:12.481Z,101159.95
2018-09-22T19:29:44.514Z,101181.17
2018-09-22T19:32:15.092Z,101172.77
2018-09-22T19:34:45.550Z,101163.09
2018-09-22T19:37:17.678Z,101169.22
2018-09-22T19:39:52.241Z,101174.22
2018-09-22T19:42:32.304Z,101189.52
2018-09-22T19:45:03.562Z,101190.63
2018-09-22T19:48:36.745Z,101192.81
2018-09-22T19:51:08.580Z,101184.65
2018-09-22T19:53:36.433Z,101196.98
2018-09-22T19:56:03.608Z,101213.08
2018-09-22T19:58:30.763Z,101212.68
2018-09-22T20:00:57.966Z,101218.25
2018-09-22T20:03:25.090Z,101226.10
2018-09-22T20:05:52.272Z,101223.09
2018-09-22T20:08:19.449Z,101218.55
2018-09-22T20:10:46.579Z,101230.03
2018-09-22T20:13:13.701Z,101229.20
2018-09-22T20:15:41.305Z,101230.66
2018-09-22T20:18:08.438Z,101234.14
2018-09-22T20:20:35.604Z,101228.66
2018-09-22T20:23:02.784Z,101223.36
2018-09-22T20:25:29.905Z,101224.66
2018-09-22T20:27:57.013Z,101228.45
2018-09-22T20:30:24.280Z,101224.02
2018-09-22T20:32:51.473Z,101212.08
2018-09-22T20:35:18.649Z,101211.79
2018-09-22T20:37:45.819Z,101208.28
2018-09-22T20:40:12.932Z,101193.37
2018-09-22T20:42:40.063Z,101174.78
2018-09-22T20:45:07.240Z,101172.94
2018-09-22T20:47:34.352Z,101153.37
2018-09-22T20:50:01.507Z,101173.13
2018-09-22T20:52:28.665Z,101179.77
2018-09-22T20:54:55.836Z,101183.95
2018-09-22T20:57:22.970Z,101179.21
2018-09-22T20:59:50.121Z,101179.80
2018-09-22T21:02:17.241Z,101197.27
2018-09-22T21:04:44.378Z,101194.29
2018-09-22T21:07:11.544Z,101196.61
2018-09-22T21:09:38.650Z,101208.11
2018-09-22T21:12:05.767Z,101210.38
2018-09-22T21:14:32.945Z,101203.66
2018-09-22T21:17:00.065Z,101211.59
2018-09-22T21:19:27.196Z,101221.98
2018-09-22T21:21:54.380Z,101220.77
2018-09-22T21:24:21.523Z,101221.11
2018-09-22T21:26:48.647Z,101227.85
2018-09-22T21:29:15.836Z,101216.99
2018-09-22T21:31:42.941Z,101219.58
2018-09-22T21:34:10.145Z,101218.20
2018-09-22T21:36:37.316Z,101222.69
2018-09-22T21:39:07.296Z,101209.14
2018-09-22T21:41:34.420Z,101216.25
2018-09-22T21:44:01.589Z,101222.50
2018-09-22T21:46:28.741Z,101213.41
2018-09-22T21:48:55.853Z,101224.31
2018-09-22T21:51:23.001Z,101217.29
2018-09-22T21:53:50.113Z,101205.46
2018-09-22T21:56:17.217Z,101203.03
2018-09-22T21:58:44.364Z,101203.47
2018-09-22T22:01:17.256Z,101207.59
2018-09-22T22:03:44.476Z,101207.55
2018-09-22T22:06:11.769Z,101208.52
2018-09-22T22:08:39.263Z,101207.69
2018-09-22T22:11:07.694Z,101205.84
2018-09-22T22:13:35.525Z,101207.52
2018-09-22T22:16:03.099Z,101203.95
2018-09-22T22:18:30.571Z,101207.27
2018-09-22T22:20:59.312Z,101207.16
2018-09-22T22:23:26.446Z,101204.25
2018-09-22T22:25:55.001Z,101193.35
2018-09-22T22:28:22.804Z,101196.49
2018-09-22T22:30:50.914Z,101200.38
2018-09-22T22:33:18.685Z,101205.26
2018-09-22T22:35:46.635Z,101200.48
2018-09-22T22:38:14.612Z,101205.66
2018-09-22T22:40:42.294Z,101202.36
2018-09-22T22:43:09.856Z,101195.20
2018-09-22T22:45:37.786Z,101189.72
2018-09-22T22:48:05.866Z,101189.66
2018-09-22T22:50:33.145Z,101189.66
2018-09-22T22:53:00.987Z,101184.47
2018-09-22T22:55:28.152Z,101187.86
2018-09-22T22:57:55.252Z,101191.92
2018-09-22T23:00:22.538Z,101190.44
2018-09-22T23:02:49.734Z,101180.30
2018-09-22T23:05:16.864Z,101187.22
2018-09-22T23:07:43.944Z,101183.73
2018-09-22T23:10:11.097Z,101178.96
2018-09-22T23:12:38.249Z,101194.41
2018-09-22T23:15:05.477Z,101178.45
2018-09-22T23:17:32.621Z,101185.56
2018-09-22T23:19:59.716Z,101184.62
2018-09-22T23:22:26.813Z,101175.48
2018-09-22T23:24:53.954Z,101170.13
2018-09-22T23:27:21.083Z,101177.16
2018-09-22T23:29:48.192Z,101167.97
2018-09-22T23:32:15.327Z,101169.77
2018-09-22T23:34:42.420Z,101174.64
2018-09-22T23:37:09.513Z,101165.45
2018-09-22T23:39:36.676Z,101174.72
2018-09-22T23:42:03.811Z,101164.27
2018-09-22T23:44:30.951Z,101178.36
2018-09-22T23:46:58.137Z,101168.23
2018-09-22T23:49:25.289Z,101165.06
2018-09-22T23:51:52.449Z,101165.61
2018-09-22T23:54:19.597Z,101159.49
2018-09-22T23:56:46.711Z,101165.16
2018-09-22T23:59:13.805Z,101168.30
